<?xml version="1.0" encoding="UTF-8"?>
<gpx version="1.1" creator="https://www.youtrack.es" xsi:schemaLocation="http://www.topografix.com/GPX/1/1 http://www.topografix.com/GPX/1/1/gpx.xsd http://www.garmin.com/xmlschemas/GpxExtensions/v3 http://www.garmin.com/xmlschemas/GpxExtensionsv3.xsd http://www.garmin.com/xmlschemas/TrackPointExtension/v1 http://www.garmin.com/xmlschemas/TrackPointExtensionv1.xsd" xmlns:gpxtpx="http://www.garmin.com/xmlschemas/TrackPointExtension/v1" xmlns:gpxx="http://www.garmin.com/xmlschemas/GpxExtensions/v3" xmlns:xsi="http://www.w3.org/2001/XMLSchema-instance">
  <metadata>
    <link href="https://www.youtrack.es">
      <text>YouTrack.es</text>
    </link>
    <time>2026-05-08T00:14:57Z</time>
  </metadata>
  <trk>
    <src>https://www.youtrack.es</src>
    <link href="https://www.youtrack.es/ruta/10730-duatlon-cross-cobena">
      <text>YouTrack.es</text>
    </link>
    <trkseg>
      <trkpt lat="40.581451" lon="-3.505533">
        <ele>684.031</ele>
        <time>2020-01-28T17:06:16Z</time>
      </trkpt>
      <trkpt lat="40.581846" lon="-3.505627">
        <ele>682.061</ele>
        <time>2020-01-28T17:06:36Z</time>
      </trkpt>
      <trkpt lat="40.581883" lon="-3.505570">
        <ele>682.007</ele>
        <time>2020-01-28T17:06:56Z</time>
      </trkpt>
      <trkpt lat="40.581881" lon="-3.505447">
        <ele>682.008</ele>
        <time>2020-01-28T17:07:16Z</time>
      </trkpt>
      <trkpt lat="40.581879" lon="-3.505345">
        <ele>682.014</ele>
        <time>2020-01-28T17:07:36Z</time>
      </trkpt>
      <trkpt lat="40.581864" lon="-3.505199">
        <ele>682.095</ele>
        <time>2020-01-28T17:07:56Z</time>
      </trkpt>
      <trkpt lat="40.581848" lon="-3.505002">
        <ele>682.022</ele>
        <time>2020-01-28T17:08:16Z</time>
      </trkpt>
      <trkpt lat="40.581821" lon="-3.504804">
        <ele>681.036</ele>
        <time>2020-01-28T17:08:36Z</time>
      </trkpt>
      <trkpt lat="40.581782" lon="-3.504564">
        <ele>683.068</ele>
        <time>2020-01-28T17:08:56Z</time>
      </trkpt>
      <trkpt lat="40.581753" lon="-3.504218">
        <ele>683.088</ele>
        <time>2020-01-28T17:09:16Z</time>
      </trkpt>
      <trkpt lat="40.581551" lon="-3.504031">
        <ele>683.046</ele>
        <time>2020-01-28T17:09:36Z</time>
      </trkpt>
      <trkpt lat="40.581296" lon="-3.503878">
        <ele>684.077</ele>
        <time>2020-01-28T17:09:56Z</time>
      </trkpt>
      <trkpt lat="40.581040" lon="-3.503721">
        <ele>686.086</ele>
        <time>2020-01-28T17:10:16Z</time>
      </trkpt>
      <trkpt lat="40.580744" lon="-3.503636">
        <ele>686.060</ele>
        <time>2020-01-28T17:10:36Z</time>
      </trkpt>
      <trkpt lat="40.580615" lon="-3.503466">
        <ele>687.026</ele>
        <time>2020-01-28T17:10:56Z</time>
      </trkpt>
      <trkpt lat="40.580390" lon="-3.503357">
        <ele>688.008</ele>
        <time>2020-01-28T17:11:16Z</time>
      </trkpt>
      <trkpt lat="40.580116" lon="-3.503418">
        <ele>689.029</ele>
        <time>2020-01-28T17:11:36Z</time>
      </trkpt>
      <trkpt lat="40.579848" lon="-3.503118">
        <ele>691.030</ele>
        <time>2020-01-28T17:11:56Z</time>
      </trkpt>
      <trkpt lat="40.579651" lon="-3.502794">
        <ele>692.087</ele>
        <time>2020-01-28T17:12:16Z</time>
      </trkpt>
      <trkpt lat="40.579660" lon="-3.502623">
        <ele>693.071</ele>
        <time>2020-01-28T17:12:36Z</time>
      </trkpt>
      <trkpt lat="40.579662" lon="-3.502403">
        <ele>693.093</ele>
        <time>2020-01-28T17:12:56Z</time>
      </trkpt>
      <trkpt lat="40.579736" lon="-3.502129">
        <ele>695.073</ele>
        <time>2020-01-28T17:13:16Z</time>
      </trkpt>
      <trkpt lat="40.579750" lon="-3.501944">
        <ele>696.011</ele>
        <time>2020-01-28T17:13:36Z</time>
      </trkpt>
      <trkpt lat="40.579752" lon="-3.501745">
        <ele>697.082</ele>
        <time>2020-01-28T17:13:56Z</time>
      </trkpt>
      <trkpt lat="40.579685" lon="-3.501497">
        <ele>697.099</ele>
        <time>2020-01-28T17:14:16Z</time>
      </trkpt>
      <trkpt lat="40.579601" lon="-3.501101">
        <ele>697.007</ele>
        <time>2020-01-28T17:14:36Z</time>
      </trkpt>
      <trkpt lat="40.579362" lon="-3.500628">
        <ele>699.027</ele>
        <time>2020-01-28T17:14:56Z</time>
      </trkpt>
      <trkpt lat="40.579313" lon="-3.500421">
        <ele>699.008</ele>
        <time>2020-01-28T17:15:16Z</time>
      </trkpt>
      <trkpt lat="40.579222" lon="-3.500086">
        <ele>701.050</ele>
        <time>2020-01-28T17:15:36Z</time>
      </trkpt>
      <trkpt lat="40.579203" lon="-3.499923">
        <ele>701.011</ele>
        <time>2020-01-28T17:15:56Z</time>
      </trkpt>
      <trkpt lat="40.579200" lon="-3.499816">
        <ele>702.038</ele>
        <time>2020-01-28T17:16:16Z</time>
      </trkpt>
      <trkpt lat="40.579364" lon="-3.499609">
        <ele>702.012</ele>
        <time>2020-01-28T17:16:36Z</time>
      </trkpt>
      <trkpt lat="40.579555" lon="-3.499335">
        <ele>703.014</ele>
        <time>2020-01-28T17:16:56Z</time>
      </trkpt>
      <trkpt lat="40.579682" lon="-3.499090">
        <ele>704.064</ele>
        <time>2020-01-28T17:17:16Z</time>
      </trkpt>
      <trkpt lat="40.579916" lon="-3.498794">
        <ele>705.052</ele>
        <time>2020-01-28T17:17:36Z</time>
      </trkpt>
      <trkpt lat="40.579970" lon="-3.498626">
        <ele>706.053</ele>
        <time>2020-01-28T17:17:56Z</time>
      </trkpt>
      <trkpt lat="40.580058" lon="-3.498475">
        <ele>706.036</ele>
        <time>2020-01-28T17:18:16Z</time>
      </trkpt>
      <trkpt lat="40.580173" lon="-3.498377">
        <ele>707.017</ele>
        <time>2020-01-28T17:18:36Z</time>
      </trkpt>
      <trkpt lat="40.580271" lon="-3.498450">
        <ele>707.018</ele>
        <time>2020-01-28T17:18:56Z</time>
      </trkpt>
      <trkpt lat="40.580428" lon="-3.498818">
        <ele>706.008</ele>
        <time>2020-01-28T17:19:16Z</time>
      </trkpt>
      <trkpt lat="40.580642" lon="-3.499213">
        <ele>705.064</ele>
        <time>2020-01-28T17:19:36Z</time>
      </trkpt>
      <trkpt lat="40.580827" lon="-3.499441">
        <ele>704.075</ele>
        <time>2020-01-28T17:19:56Z</time>
      </trkpt>
      <trkpt lat="40.581307" lon="-3.499584">
        <ele>706.062</ele>
        <time>2020-01-28T17:20:16Z</time>
      </trkpt>
      <trkpt lat="40.581594" lon="-3.499546">
        <ele>709.046</ele>
        <time>2020-01-28T17:20:36Z</time>
      </trkpt>
      <trkpt lat="40.581987" lon="-3.499477">
        <ele>710.088</ele>
        <time>2020-01-28T17:20:56Z</time>
      </trkpt>
      <trkpt lat="40.582356" lon="-3.499366">
        <ele>709.048</ele>
        <time>2020-01-28T17:21:16Z</time>
      </trkpt>
      <trkpt lat="40.582674" lon="-3.499121">
        <ele>705.066</ele>
        <time>2020-01-28T17:21:36Z</time>
      </trkpt>
      <trkpt lat="40.582768" lon="-3.499033">
        <ele>705.087</ele>
        <time>2020-01-28T17:21:56Z</time>
      </trkpt>
      <trkpt lat="40.582942" lon="-3.499009">
        <ele>704.091</ele>
        <time>2020-01-28T17:22:16Z</time>
      </trkpt>
      <trkpt lat="40.583205" lon="-3.498943">
        <ele>702.081</ele>
        <time>2020-01-28T17:22:36Z</time>
      </trkpt>
      <trkpt lat="40.583395" lon="-3.498822">
        <ele>702.019</ele>
        <time>2020-01-28T17:22:56Z</time>
      </trkpt>
      <trkpt lat="40.583535" lon="-3.498645">
        <ele>702.008</ele>
        <time>2020-01-28T17:23:16Z</time>
      </trkpt>
      <trkpt lat="40.583707" lon="-3.498205">
        <ele>703.010</ele>
        <time>2020-01-28T17:23:36Z</time>
      </trkpt>
      <trkpt lat="40.583885" lon="-3.497888">
        <ele>704.041</ele>
        <time>2020-01-28T17:23:56Z</time>
      </trkpt>
      <trkpt lat="40.584055" lon="-3.497621">
        <ele>704.098</ele>
        <time>2020-01-28T17:24:16Z</time>
      </trkpt>
      <trkpt lat="40.584305" lon="-3.497279">
        <ele>705.052</ele>
        <time>2020-01-28T17:24:36Z</time>
      </trkpt>
      <trkpt lat="40.584434" lon="-3.497072">
        <ele>705.054</ele>
        <time>2020-01-28T17:24:56Z</time>
      </trkpt>
      <trkpt lat="40.584530" lon="-3.496962">
        <ele>705.034</ele>
        <time>2020-01-28T17:25:16Z</time>
      </trkpt>
      <trkpt lat="40.584771" lon="-3.496959">
        <ele>706.042</ele>
        <time>2020-01-28T17:25:36Z</time>
      </trkpt>
      <trkpt lat="40.585061" lon="-3.496934">
        <ele>707.033</ele>
        <time>2020-01-28T17:25:56Z</time>
      </trkpt>
      <trkpt lat="40.585231" lon="-3.496882">
        <ele>707.021</ele>
        <time>2020-01-28T17:26:16Z</time>
      </trkpt>
      <trkpt lat="40.585379" lon="-3.496895">
        <ele>707.041</ele>
        <time>2020-01-28T17:26:36Z</time>
      </trkpt>
      <trkpt lat="40.585384" lon="-3.497240">
        <ele>707.005</ele>
        <time>2020-01-28T17:26:56Z</time>
      </trkpt>
      <trkpt lat="40.585248" lon="-3.498133">
        <ele>706.008</ele>
        <time>2020-01-28T17:27:16Z</time>
      </trkpt>
      <trkpt lat="40.585086" lon="-3.499347">
        <ele>700.083</ele>
        <time>2020-01-28T17:27:36Z</time>
      </trkpt>
      <trkpt lat="40.584854" lon="-3.500146">
        <ele>695.064</ele>
        <time>2020-01-28T17:27:56Z</time>
      </trkpt>
      <trkpt lat="40.584654" lon="-3.500864">
        <ele>695.081</ele>
        <time>2020-01-28T17:28:16Z</time>
      </trkpt>
      <trkpt lat="40.584576" lon="-3.501206">
        <ele>693.025</ele>
        <time>2020-01-28T17:28:36Z</time>
      </trkpt>
      <trkpt lat="40.584573" lon="-3.501561">
        <ele>691.067</ele>
        <time>2020-01-28T17:28:56Z</time>
      </trkpt>
      <trkpt lat="40.584558" lon="-3.501772">
        <ele>691.047</ele>
        <time>2020-01-28T17:29:16Z</time>
      </trkpt>
      <trkpt lat="40.584533" lon="-3.502165">
        <ele>689.075</ele>
        <time>2020-01-28T17:29:36Z</time>
      </trkpt>
      <trkpt lat="40.584558" lon="-3.502411">
        <ele>689.056</ele>
        <time>2020-01-28T17:29:56Z</time>
      </trkpt>
      <trkpt lat="40.584290" lon="-3.502844">
        <ele>687.082</ele>
        <time>2020-01-28T17:30:16Z</time>
      </trkpt>
      <trkpt lat="40.584116" lon="-3.503285">
        <ele>686.043</ele>
        <time>2020-01-28T17:30:36Z</time>
      </trkpt>
      <trkpt lat="40.583944" lon="-3.503715">
        <ele>683.017</ele>
        <time>2020-01-28T17:30:56Z</time>
      </trkpt>
      <trkpt lat="40.583733" lon="-3.504026">
        <ele>681.008</ele>
        <time>2020-01-28T17:31:16Z</time>
      </trkpt>
      <trkpt lat="40.583507" lon="-3.504332">
        <ele>680.089</ele>
        <time>2020-01-28T17:31:36Z</time>
      </trkpt>
      <trkpt lat="40.583236" lon="-3.504508">
        <ele>679.010</ele>
        <time>2020-01-28T17:31:56Z</time>
      </trkpt>
      <trkpt lat="40.582995" lon="-3.504681">
        <ele>679.087</ele>
        <time>2020-01-28T17:32:16Z</time>
      </trkpt>
      <trkpt lat="40.582588" lon="-3.504855">
        <ele>680.031</ele>
        <time>2020-01-28T17:32:36Z</time>
      </trkpt>
      <trkpt lat="40.582290" lon="-3.504962">
        <ele>681.093</ele>
        <time>2020-01-28T17:32:56Z</time>
      </trkpt>
      <trkpt lat="40.582094" lon="-3.504947">
        <ele>681.093</ele>
        <time>2020-01-28T17:33:16Z</time>
      </trkpt>
      <trkpt lat="40.581992" lon="-3.504799">
        <ele>681.061</ele>
        <time>2020-01-28T17:33:36Z</time>
      </trkpt>
      <trkpt lat="40.581951" lon="-3.504483">
        <ele>682.022</ele>
        <time>2020-01-28T17:33:56Z</time>
      </trkpt>
      <trkpt lat="40.581884" lon="-3.504213">
        <ele>682.082</ele>
        <time>2020-01-28T17:34:16Z</time>
      </trkpt>
      <trkpt lat="40.581721" lon="-3.504067">
        <ele>683.043</ele>
        <time>2020-01-28T17:34:36Z</time>
      </trkpt>
      <trkpt lat="40.581466" lon="-3.503845">
        <ele>684.017</ele>
        <time>2020-01-28T17:34:56Z</time>
      </trkpt>
      <trkpt lat="40.581182" lon="-3.503634">
        <ele>686.008</ele>
        <time>2020-01-28T17:35:16Z</time>
      </trkpt>
      <trkpt lat="40.580808" lon="-3.503552">
        <ele>686.079</ele>
        <time>2020-01-28T17:35:36Z</time>
      </trkpt>
      <trkpt lat="40.580564" lon="-3.503298">
        <ele>687.070</ele>
        <time>2020-01-28T17:35:56Z</time>
      </trkpt>
      <trkpt lat="40.580369" lon="-3.503291">
        <ele>688.097</ele>
        <time>2020-01-28T17:36:16Z</time>
      </trkpt>
      <trkpt lat="40.580131" lon="-3.503325">
        <ele>689.051</ele>
        <time>2020-01-28T17:36:36Z</time>
      </trkpt>
      <trkpt lat="40.579944" lon="-3.503145">
        <ele>689.093</ele>
        <time>2020-01-28T17:36:56Z</time>
      </trkpt>
      <trkpt lat="40.579714" lon="-3.502752">
        <ele>692.083</ele>
        <time>2020-01-28T17:37:16Z</time>
      </trkpt>
      <trkpt lat="40.579682" lon="-3.502423">
        <ele>693.031</ele>
        <time>2020-01-28T17:37:36Z</time>
      </trkpt>
      <trkpt lat="40.579695" lon="-3.502159">
        <ele>695.022</ele>
        <time>2020-01-28T17:37:56Z</time>
      </trkpt>
      <trkpt lat="40.579736" lon="-3.501611">
        <ele>697.066</ele>
        <time>2020-01-28T17:38:16Z</time>
      </trkpt>
      <trkpt lat="40.579607" lon="-3.501218">
        <ele>697.029</ele>
        <time>2020-01-28T17:38:36Z</time>
      </trkpt>
      <trkpt lat="40.579447" lon="-3.500818">
        <ele>698.021</ele>
        <time>2020-01-28T17:38:56Z</time>
      </trkpt>
      <trkpt lat="40.579364" lon="-3.500576">
        <ele>699.008</ele>
        <time>2020-01-28T17:39:16Z</time>
      </trkpt>
      <trkpt lat="40.579293" lon="-3.500292">
        <ele>700.087</ele>
        <time>2020-01-28T17:39:36Z</time>
      </trkpt>
      <trkpt lat="40.579237" lon="-3.500030">
        <ele>701.018</ele>
        <time>2020-01-28T17:39:56Z</time>
      </trkpt>
      <trkpt lat="40.579178" lon="-3.499837">
        <ele>702.015</ele>
        <time>2020-01-28T17:40:16Z</time>
      </trkpt>
      <trkpt lat="40.579327" lon="-3.499692">
        <ele>702.059</ele>
        <time>2020-01-28T17:40:36Z</time>
      </trkpt>
      <trkpt lat="40.579567" lon="-3.499387">
        <ele>703.031</ele>
        <time>2020-01-28T17:40:56Z</time>
      </trkpt>
      <trkpt lat="40.579669" lon="-3.499174">
        <ele>704.071</ele>
        <time>2020-01-28T17:41:16Z</time>
      </trkpt>
      <trkpt lat="40.579834" lon="-3.498929">
        <ele>705.089</ele>
        <time>2020-01-28T17:41:36Z</time>
      </trkpt>
      <trkpt lat="40.579916" lon="-3.498725">
        <ele>706.040</ele>
        <time>2020-01-28T17:41:56Z</time>
      </trkpt>
      <trkpt lat="40.580119" lon="-3.498390">
        <ele>706.019</ele>
        <time>2020-01-28T17:42:16Z</time>
      </trkpt>
      <trkpt lat="40.580230" lon="-3.498388">
        <ele>707.009</ele>
        <time>2020-01-28T17:42:36Z</time>
      </trkpt>
      <trkpt lat="40.580375" lon="-3.498633">
        <ele>706.019</ele>
        <time>2020-01-28T17:42:56Z</time>
      </trkpt>
      <trkpt lat="40.580492" lon="-3.498893">
        <ele>706.008</ele>
        <time>2020-01-28T17:43:16Z</time>
      </trkpt>
      <trkpt lat="40.580674" lon="-3.499302">
        <ele>705.042</ele>
        <time>2020-01-28T17:43:36Z</time>
      </trkpt>
      <trkpt lat="40.581040" lon="-3.499535">
        <ele>705.093</ele>
        <time>2020-01-28T17:43:56Z</time>
      </trkpt>
      <trkpt lat="40.581439" lon="-3.499590">
        <ele>706.080</ele>
        <time>2020-01-28T17:44:16Z</time>
      </trkpt>
      <trkpt lat="40.581832" lon="-3.499548">
        <ele>710.014</ele>
        <time>2020-01-28T17:44:36Z</time>
      </trkpt>
      <trkpt lat="40.582296" lon="-3.499420">
        <ele>709.046</ele>
        <time>2020-01-28T17:44:56Z</time>
      </trkpt>
      <trkpt lat="40.582526" lon="-3.499274">
        <ele>709.096</ele>
        <time>2020-01-28T17:45:16Z</time>
      </trkpt>
      <trkpt lat="40.582855" lon="-3.498962">
        <ele>707.084</ele>
        <time>2020-01-28T17:45:36Z</time>
      </trkpt>
      <trkpt lat="40.583338" lon="-3.498879">
        <ele>702.065</ele>
        <time>2020-01-28T17:45:56Z</time>
      </trkpt>
      <trkpt lat="40.583760" lon="-3.498091">
        <ele>703.097</ele>
        <time>2020-01-28T17:46:16Z</time>
      </trkpt>
      <trkpt lat="40.584010" lon="-3.497638">
        <ele>705.023</ele>
        <time>2020-01-28T17:46:36Z</time>
      </trkpt>
      <trkpt lat="40.584176" lon="-3.497392">
        <ele>704.025</ele>
        <time>2020-01-28T17:46:56Z</time>
      </trkpt>
      <trkpt lat="40.584467" lon="-3.496974">
        <ele>705.008</ele>
        <time>2020-01-28T17:47:16Z</time>
      </trkpt>
      <trkpt lat="40.584613" lon="-3.496976">
        <ele>706.010</ele>
        <time>2020-01-28T17:47:36Z</time>
      </trkpt>
      <trkpt lat="40.584782" lon="-3.497006">
        <ele>706.021</ele>
        <time>2020-01-28T17:47:56Z</time>
      </trkpt>
      <trkpt lat="40.584943" lon="-3.496978">
        <ele>707.098</ele>
        <time>2020-01-28T17:48:16Z</time>
      </trkpt>
      <trkpt lat="40.585150" lon="-3.496884">
        <ele>707.062</ele>
        <time>2020-01-28T17:48:36Z</time>
      </trkpt>
      <trkpt lat="40.585276" lon="-3.496850">
        <ele>707.094</ele>
        <time>2020-01-28T17:48:56Z</time>
      </trkpt>
      <trkpt lat="40.585427" lon="-3.496941">
        <ele>708.084</ele>
        <time>2020-01-28T17:49:16Z</time>
      </trkpt>
      <trkpt lat="40.585447" lon="-3.497166">
        <ele>708.052</ele>
        <time>2020-01-28T17:49:36Z</time>
      </trkpt>
      <trkpt lat="40.585219" lon="-3.498262">
        <ele>705.043</ele>
        <time>2020-01-28T17:49:56Z</time>
      </trkpt>
      <trkpt lat="40.585080" lon="-3.499252">
        <ele>701.097</ele>
        <time>2020-01-28T17:50:16Z</time>
      </trkpt>
      <trkpt lat="40.584986" lon="-3.499814">
        <ele>699.023</ele>
        <time>2020-01-28T17:50:36Z</time>
      </trkpt>
      <trkpt lat="40.584751" lon="-3.500539">
        <ele>695.025</ele>
        <time>2020-01-28T17:50:56Z</time>
      </trkpt>
      <trkpt lat="40.584587" lon="-3.501107">
        <ele>694.008</ele>
        <time>2020-01-28T17:51:16Z</time>
      </trkpt>
      <trkpt lat="40.584534" lon="-3.501446">
        <ele>692.010</ele>
        <time>2020-01-28T17:51:36Z</time>
      </trkpt>
      <trkpt lat="40.584526" lon="-3.501690">
        <ele>691.061</ele>
        <time>2020-01-28T17:51:56Z</time>
      </trkpt>
      <trkpt lat="40.584495" lon="-3.502002">
        <ele>690.048</ele>
        <time>2020-01-28T17:52:16Z</time>
      </trkpt>
      <trkpt lat="40.584521" lon="-3.502253">
        <ele>689.092</ele>
        <time>2020-01-28T17:52:36Z</time>
      </trkpt>
      <trkpt lat="40.584556" lon="-3.502519">
        <ele>689.094</ele>
        <time>2020-01-28T17:52:56Z</time>
      </trkpt>
      <trkpt lat="40.584422" lon="-3.502738">
        <ele>689.034</ele>
        <time>2020-01-28T17:53:16Z</time>
      </trkpt>
      <trkpt lat="40.584244" lon="-3.502994">
        <ele>686.032</ele>
        <time>2020-01-28T17:53:36Z</time>
      </trkpt>
      <trkpt lat="40.584101" lon="-3.503450">
        <ele>686.043</ele>
        <time>2020-01-28T17:53:56Z</time>
      </trkpt>
      <trkpt lat="40.583886" lon="-3.503880">
        <ele>682.019</ele>
        <time>2020-01-28T17:54:16Z</time>
      </trkpt>
      <trkpt lat="40.583429" lon="-3.504435">
        <ele>679.009</ele>
        <time>2020-01-28T17:54:36Z</time>
      </trkpt>
      <trkpt lat="40.583218" lon="-3.504591">
        <ele>679.019</ele>
        <time>2020-01-28T17:54:56Z</time>
      </trkpt>
      <trkpt lat="40.583069" lon="-3.504654">
        <ele>679.008</ele>
        <time>2020-01-28T17:55:16Z</time>
      </trkpt>
      <trkpt lat="40.582452" lon="-3.504925">
        <ele>680.032</ele>
        <time>2020-01-28T17:55:36Z</time>
      </trkpt>
      <trkpt lat="40.582181" lon="-3.505062">
        <ele>681.073</ele>
        <time>2020-01-28T17:55:56Z</time>
      </trkpt>
      <trkpt lat="40.582069" lon="-3.505167">
        <ele>682.020</ele>
        <time>2020-01-28T17:56:16Z</time>
      </trkpt>
      <trkpt lat="40.582036" lon="-3.505699">
        <ele>682.044</ele>
        <time>2020-01-28T17:56:36Z</time>
      </trkpt>
      <trkpt lat="40.581977" lon="-3.505859">
        <ele>682.046</ele>
        <time>2020-01-28T17:56:56Z</time>
      </trkpt>
      <trkpt lat="40.581873" lon="-3.505750">
        <ele>682.036</ele>
        <time>2020-01-28T17:57:16Z</time>
      </trkpt>
      <trkpt lat="40.581785" lon="-3.505737">
        <ele>683.054</ele>
        <time>2020-01-28T17:57:36Z</time>
      </trkpt>
      <trkpt lat="40.581724" lon="-3.505715">
        <ele>683.055</ele>
        <time>2020-01-28T17:57:56Z</time>
      </trkpt>
      <trkpt lat="40.581644" lon="-3.505697">
        <ele>683.016</ele>
        <time>2020-01-28T17:58:16Z</time>
      </trkpt>
      <trkpt lat="40.581574" lon="-3.505709">
        <ele>683.076</ele>
        <time>2020-01-28T17:58:36Z</time>
      </trkpt>
      <trkpt lat="40.581204" lon="-3.505975">
        <ele>684.021</ele>
        <time>2020-01-28T17:04:46Z</time>
      </trkpt>
      <trkpt lat="40.581086" lon="-3.506117">
        <ele>684.041</ele>
        <time>2020-01-28T17:04:56Z</time>
      </trkpt>
      <trkpt lat="40.581091" lon="-3.506387">
        <ele>683.005</ele>
        <time>2020-01-28T17:05:06Z</time>
      </trkpt>
      <trkpt lat="40.581078" lon="-3.506579">
        <ele>682.008</ele>
        <time>2020-01-28T17:05:16Z</time>
      </trkpt>
      <trkpt lat="40.580922" lon="-3.506574">
        <ele>682.083</ele>
        <time>2020-01-28T17:05:26Z</time>
      </trkpt>
      <trkpt lat="40.580903" lon="-3.506388">
        <ele>683.044</ele>
        <time>2020-01-28T17:05:36Z</time>
      </trkpt>
      <trkpt lat="40.580913" lon="-3.506224">
        <ele>684.021</ele>
        <time>2020-01-28T17:05:46Z</time>
      </trkpt>
      <trkpt lat="40.580562" lon="-3.505843">
        <ele>686.075</ele>
        <time>2020-01-28T17:05:56Z</time>
      </trkpt>
      <trkpt lat="40.580129" lon="-3.505446">
        <ele>688.027</ele>
        <time>2020-01-28T17:06:06Z</time>
      </trkpt>
      <trkpt lat="40.579669" lon="-3.505089">
        <ele>690.037</ele>
        <time>2020-01-28T17:06:16Z</time>
      </trkpt>
      <trkpt lat="40.579587" lon="-3.504938">
        <ele>690.029</ele>
        <time>2020-01-28T17:06:26Z</time>
      </trkpt>
      <trkpt lat="40.579601" lon="-3.504601">
        <ele>690.077</ele>
        <time>2020-01-28T17:06:36Z</time>
      </trkpt>
      <trkpt lat="40.579564" lon="-3.504282">
        <ele>690.076</ele>
        <time>2020-01-28T17:06:46Z</time>
      </trkpt>
      <trkpt lat="40.579502" lon="-3.503839">
        <ele>690.090</ele>
        <time>2020-01-28T17:06:56Z</time>
      </trkpt>
      <trkpt lat="40.579372" lon="-3.503755">
        <ele>690.019</ele>
        <time>2020-01-28T17:07:06Z</time>
      </trkpt>
      <trkpt lat="40.579396" lon="-3.504018">
        <ele>690.008</ele>
        <time>2020-01-28T17:07:16Z</time>
      </trkpt>
      <trkpt lat="40.579418" lon="-3.504234">
        <ele>690.068</ele>
        <time>2020-01-28T17:07:26Z</time>
      </trkpt>
      <trkpt lat="40.579272" lon="-3.504312">
        <ele>692.079</ele>
        <time>2020-01-28T17:07:36Z</time>
      </trkpt>
      <trkpt lat="40.578816" lon="-3.504400">
        <ele>693.076</ele>
        <time>2020-01-28T17:07:46Z</time>
      </trkpt>
      <trkpt lat="40.578419" lon="-3.504556">
        <ele>696.040</ele>
        <time>2020-01-28T17:07:56Z</time>
      </trkpt>
      <trkpt lat="40.578137" lon="-3.504562">
        <ele>698.062</ele>
        <time>2020-01-28T17:08:06Z</time>
      </trkpt>
      <trkpt lat="40.577929" lon="-3.504646">
        <ele>698.012</ele>
        <time>2020-01-28T17:08:16Z</time>
      </trkpt>
      <trkpt lat="40.577859" lon="-3.505128">
        <ele>699.064</ele>
        <time>2020-01-28T17:08:26Z</time>
      </trkpt>
      <trkpt lat="40.577756" lon="-3.505448">
        <ele>699.032</ele>
        <time>2020-01-28T17:08:36Z</time>
      </trkpt>
      <trkpt lat="40.577509" lon="-3.505543">
        <ele>701.059</ele>
        <time>2020-01-28T17:08:46Z</time>
      </trkpt>
      <trkpt lat="40.577212" lon="-3.505450">
        <ele>702.003</ele>
        <time>2020-01-28T17:08:56Z</time>
      </trkpt>
      <trkpt lat="40.576824" lon="-3.505496">
        <ele>705.023</ele>
        <time>2020-01-28T17:09:06Z</time>
      </trkpt>
      <trkpt lat="40.576457" lon="-3.505473">
        <ele>713.008</ele>
        <time>2020-01-28T17:09:16Z</time>
      </trkpt>
      <trkpt lat="40.576138" lon="-3.505666">
        <ele>718.036</ele>
        <time>2020-01-28T17:09:26Z</time>
      </trkpt>
      <trkpt lat="40.576016" lon="-3.505714">
        <ele>717.057</ele>
        <time>2020-01-28T17:09:36Z</time>
      </trkpt>
      <trkpt lat="40.575788" lon="-3.505599">
        <ele>723.034</ele>
        <time>2020-01-28T17:09:46Z</time>
      </trkpt>
      <trkpt lat="40.575413" lon="-3.505473">
        <ele>729.018</ele>
        <time>2020-01-28T17:09:56Z</time>
      </trkpt>
      <trkpt lat="40.575151" lon="-3.505420">
        <ele>729.030</ele>
        <time>2020-01-28T17:10:06Z</time>
      </trkpt>
      <trkpt lat="40.575095" lon="-3.505130">
        <ele>730.020</ele>
        <time>2020-01-28T17:10:16Z</time>
      </trkpt>
      <trkpt lat="40.575126" lon="-3.504723">
        <ele>730.022</ele>
        <time>2020-01-28T17:10:26Z</time>
      </trkpt>
      <trkpt lat="40.575087" lon="-3.504342">
        <ele>730.060</ele>
        <time>2020-01-28T17:10:36Z</time>
      </trkpt>
      <trkpt lat="40.574983" lon="-3.503928">
        <ele>729.023</ele>
        <time>2020-01-28T17:10:46Z</time>
      </trkpt>
      <trkpt lat="40.574842" lon="-3.503530">
        <ele>728.083</ele>
        <time>2020-01-28T17:10:56Z</time>
      </trkpt>
      <trkpt lat="40.574930" lon="-3.503160">
        <ele>729.011</ele>
        <time>2020-01-28T17:11:06Z</time>
      </trkpt>
      <trkpt lat="40.575083" lon="-3.502917">
        <ele>729.008</ele>
        <time>2020-01-28T17:11:16Z</time>
      </trkpt>
      <trkpt lat="40.575459" lon="-3.502712">
        <ele>726.093</ele>
        <time>2020-01-28T17:11:26Z</time>
      </trkpt>
      <trkpt lat="40.575764" lon="-3.502355">
        <ele>725.044</ele>
        <time>2020-01-28T17:11:36Z</time>
      </trkpt>
      <trkpt lat="40.576171" lon="-3.502053">
        <ele>723.091</ele>
        <time>2020-01-28T17:11:46Z</time>
      </trkpt>
      <trkpt lat="40.576798" lon="-3.501720">
        <ele>717.015</ele>
        <time>2020-01-28T17:11:56Z</time>
      </trkpt>
      <trkpt lat="40.577258" lon="-3.501404">
        <ele>710.077</ele>
        <time>2020-01-28T17:12:06Z</time>
      </trkpt>
      <trkpt lat="40.577658" lon="-3.501139">
        <ele>706.057</ele>
        <time>2020-01-28T17:12:16Z</time>
      </trkpt>
      <trkpt lat="40.577841" lon="-3.500898">
        <ele>707.069</ele>
        <time>2020-01-28T17:12:26Z</time>
      </trkpt>
      <trkpt lat="40.577277" lon="-3.500659">
        <ele>712.077</ele>
        <time>2020-01-28T17:12:36Z</time>
      </trkpt>
      <trkpt lat="40.576864" lon="-3.500632">
        <ele>716.048</ele>
        <time>2020-01-28T17:12:46Z</time>
      </trkpt>
      <trkpt lat="40.576024" lon="-3.500926">
        <ele>726.061</ele>
        <time>2020-01-28T17:12:56Z</time>
      </trkpt>
      <trkpt lat="40.575574" lon="-3.500952">
        <ele>731.017</ele>
        <time>2020-01-28T17:13:06Z</time>
      </trkpt>
      <trkpt lat="40.575221" lon="-3.501152">
        <ele>731.008</ele>
        <time>2020-01-28T17:13:16Z</time>
      </trkpt>
      <trkpt lat="40.575289" lon="-3.500898">
        <ele>732.035</ele>
        <time>2020-01-28T17:13:26Z</time>
      </trkpt>
      <trkpt lat="40.575792" lon="-3.500321">
        <ele>732.076</ele>
        <time>2020-01-28T17:13:36Z</time>
      </trkpt>
      <trkpt lat="40.576092" lon="-3.499564">
        <ele>732.033</ele>
        <time>2020-01-28T17:13:46Z</time>
      </trkpt>
      <trkpt lat="40.576500" lon="-3.499198">
        <ele>732.087</ele>
        <time>2020-01-28T17:13:56Z</time>
      </trkpt>
      <trkpt lat="40.576776" lon="-3.498422">
        <ele>734.019</ele>
        <time>2020-01-28T17:14:06Z</time>
      </trkpt>
      <trkpt lat="40.577134" lon="-3.498042">
        <ele>732.039</ele>
        <time>2020-01-28T17:14:16Z</time>
      </trkpt>
      <trkpt lat="40.578058" lon="-3.497118">
        <ele>726.051</ele>
        <time>2020-01-28T17:14:26Z</time>
      </trkpt>
      <trkpt lat="40.578439" lon="-3.496433">
        <ele>722.099</ele>
        <time>2020-01-28T17:14:36Z</time>
      </trkpt>
      <trkpt lat="40.578705" lon="-3.495904">
        <ele>718.057</ele>
        <time>2020-01-28T17:14:46Z</time>
      </trkpt>
      <trkpt lat="40.578910" lon="-3.495441">
        <ele>716.000</ele>
        <time>2020-01-28T17:14:56Z</time>
      </trkpt>
      <trkpt lat="40.579299" lon="-3.494977">
        <ele>717.020</ele>
        <time>2020-01-28T17:15:06Z</time>
      </trkpt>
      <trkpt lat="40.579534" lon="-3.494530">
        <ele>719.008</ele>
        <time>2020-01-28T17:15:16Z</time>
      </trkpt>
      <trkpt lat="40.579862" lon="-3.493521">
        <ele>725.076</ele>
        <time>2020-01-28T17:15:26Z</time>
      </trkpt>
      <trkpt lat="40.580024" lon="-3.492501">
        <ele>728.037</ele>
        <time>2020-01-28T17:15:36Z</time>
      </trkpt>
      <trkpt lat="40.580076" lon="-3.491566">
        <ele>731.074</ele>
        <time>2020-01-28T17:15:46Z</time>
      </trkpt>
      <trkpt lat="40.579955" lon="-3.489930">
        <ele>737.078</ele>
        <time>2020-01-28T17:15:56Z</time>
      </trkpt>
      <trkpt lat="40.579953" lon="-3.489514">
        <ele>740.090</ele>
        <time>2020-01-28T17:16:06Z</time>
      </trkpt>
      <trkpt lat="40.580063" lon="-3.489131">
        <ele>742.020</ele>
        <time>2020-01-28T17:16:16Z</time>
      </trkpt>
      <trkpt lat="40.580031" lon="-3.488691">
        <ele>745.012</ele>
        <time>2020-01-28T17:16:26Z</time>
      </trkpt>
      <trkpt lat="40.579985" lon="-3.488063">
        <ele>747.030</ele>
        <time>2020-01-28T17:16:36Z</time>
      </trkpt>
      <trkpt lat="40.579995" lon="-3.487416">
        <ele>749.077</ele>
        <time>2020-01-28T17:16:46Z</time>
      </trkpt>
      <trkpt lat="40.579991" lon="-3.487184">
        <ele>749.061</ele>
        <time>2020-01-28T17:16:56Z</time>
      </trkpt>
      <trkpt lat="40.580178" lon="-3.486718">
        <ele>744.027</ele>
        <time>2020-01-28T17:17:06Z</time>
      </trkpt>
      <trkpt lat="40.580229" lon="-3.486430">
        <ele>741.008</ele>
        <time>2020-01-28T17:17:16Z</time>
      </trkpt>
      <trkpt lat="40.580110" lon="-3.486135">
        <ele>740.048</ele>
        <time>2020-01-28T17:17:26Z</time>
      </trkpt>
      <trkpt lat="40.579995" lon="-3.486008">
        <ele>740.079</ele>
        <time>2020-01-28T17:17:36Z</time>
      </trkpt>
      <trkpt lat="40.579770" lon="-3.485822">
        <ele>738.056</ele>
        <time>2020-01-28T17:17:46Z</time>
      </trkpt>
      <trkpt lat="40.579823" lon="-3.485461">
        <ele>735.080</ele>
        <time>2020-01-28T17:17:56Z</time>
      </trkpt>
      <trkpt lat="40.579982" lon="-3.485027">
        <ele>730.012</ele>
        <time>2020-01-28T17:18:06Z</time>
      </trkpt>
      <trkpt lat="40.580260" lon="-3.485094">
        <ele>730.082</ele>
        <time>2020-01-28T17:18:16Z</time>
      </trkpt>
      <trkpt lat="40.580785" lon="-3.485443">
        <ele>732.014</ele>
        <time>2020-01-28T17:18:26Z</time>
      </trkpt>
      <trkpt lat="40.581409" lon="-3.485703">
        <ele>733.082</ele>
        <time>2020-01-28T17:18:36Z</time>
      </trkpt>
      <trkpt lat="40.581808" lon="-3.485955">
        <ele>733.076</ele>
        <time>2020-01-28T17:18:46Z</time>
      </trkpt>
      <trkpt lat="40.582224" lon="-3.486478">
        <ele>734.090</ele>
        <time>2020-01-28T17:18:56Z</time>
      </trkpt>
      <trkpt lat="40.582537" lon="-3.486915">
        <ele>735.019</ele>
        <time>2020-01-28T17:19:06Z</time>
      </trkpt>
      <trkpt lat="40.582801" lon="-3.488110">
        <ele>735.008</ele>
        <time>2020-01-28T17:19:16Z</time>
      </trkpt>
      <trkpt lat="40.582970" lon="-3.488720">
        <ele>732.098</ele>
        <time>2020-01-28T17:19:26Z</time>
      </trkpt>
      <trkpt lat="40.583162" lon="-3.489609">
        <ele>728.049</ele>
        <time>2020-01-28T17:19:36Z</time>
      </trkpt>
      <trkpt lat="40.583617" lon="-3.490113">
        <ele>724.016</ele>
        <time>2020-01-28T17:19:46Z</time>
      </trkpt>
      <trkpt lat="40.583756" lon="-3.490665">
        <ele>722.010</ele>
        <time>2020-01-28T17:19:56Z</time>
      </trkpt>
      <trkpt lat="40.583994" lon="-3.491413">
        <ele>722.062</ele>
        <time>2020-01-28T17:20:06Z</time>
      </trkpt>
      <trkpt lat="40.584236" lon="-3.492155">
        <ele>720.012</ele>
        <time>2020-01-28T17:20:16Z</time>
      </trkpt>
      <trkpt lat="40.584441" lon="-3.492846">
        <ele>716.064</ele>
        <time>2020-01-28T17:20:26Z</time>
      </trkpt>
      <trkpt lat="40.584588" lon="-3.493304">
        <ele>713.042</ele>
        <time>2020-01-28T17:20:36Z</time>
      </trkpt>
      <trkpt lat="40.584902" lon="-3.493698">
        <ele>710.048</ele>
        <time>2020-01-28T17:20:46Z</time>
      </trkpt>
      <trkpt lat="40.585120" lon="-3.494285">
        <ele>709.061</ele>
        <time>2020-01-28T17:20:56Z</time>
      </trkpt>
      <trkpt lat="40.585422" lon="-3.494550">
        <ele>708.017</ele>
        <time>2020-01-28T17:21:06Z</time>
      </trkpt>
      <trkpt lat="40.585665" lon="-3.494913">
        <ele>709.008</ele>
        <time>2020-01-28T17:21:16Z</time>
      </trkpt>
      <trkpt lat="40.585802" lon="-3.495278">
        <ele>710.085</ele>
        <time>2020-01-28T17:21:26Z</time>
      </trkpt>
      <trkpt lat="40.585658" lon="-3.495938">
        <ele>709.066</ele>
        <time>2020-01-28T17:21:36Z</time>
      </trkpt>
      <trkpt lat="40.585405" lon="-3.496740">
        <ele>708.053</ele>
        <time>2020-01-28T17:21:46Z</time>
      </trkpt>
      <trkpt lat="40.585345" lon="-3.497239">
        <ele>707.037</ele>
        <time>2020-01-28T17:21:56Z</time>
      </trkpt>
      <trkpt lat="40.585185" lon="-3.498486">
        <ele>704.069</ele>
        <time>2020-01-28T17:22:06Z</time>
      </trkpt>
      <trkpt lat="40.585094" lon="-3.499251">
        <ele>701.059</ele>
        <time>2020-01-28T17:22:16Z</time>
      </trkpt>
      <trkpt lat="40.584956" lon="-3.499969">
        <ele>698.041</ele>
        <time>2020-01-28T17:22:26Z</time>
      </trkpt>
      <trkpt lat="40.584575" lon="-3.500991">
        <ele>693.069</ele>
        <time>2020-01-28T17:22:36Z</time>
      </trkpt>
      <trkpt lat="40.584649" lon="-3.502202">
        <ele>691.047</ele>
        <time>2020-01-28T17:22:46Z</time>
      </trkpt>
      <trkpt lat="40.584394" lon="-3.502871">
        <ele>689.029</ele>
        <time>2020-01-28T17:22:56Z</time>
      </trkpt>
      <trkpt lat="40.583930" lon="-3.503610">
        <ele>683.021</ele>
        <time>2020-01-28T17:23:06Z</time>
      </trkpt>
      <trkpt lat="40.583341" lon="-3.504549">
        <ele>679.008</ele>
        <time>2020-01-28T17:23:16Z</time>
      </trkpt>
      <trkpt lat="40.582813" lon="-3.504783">
        <ele>679.025</ele>
        <time>2020-01-28T17:23:26Z</time>
      </trkpt>
      <trkpt lat="40.582354" lon="-3.505004">
        <ele>681.096</ele>
        <time>2020-01-28T17:23:36Z</time>
      </trkpt>
      <trkpt lat="40.582126" lon="-3.505003">
        <ele>681.013</ele>
        <time>2020-01-28T17:23:46Z</time>
      </trkpt>
      <trkpt lat="40.581996" lon="-3.504692">
        <ele>681.047</ele>
        <time>2020-01-28T17:23:56Z</time>
      </trkpt>
      <trkpt lat="40.581950" lon="-3.504328">
        <ele>682.029</ele>
        <time>2020-01-28T17:24:06Z</time>
      </trkpt>
      <trkpt lat="40.581654" lon="-3.503985">
        <ele>683.099</ele>
        <time>2020-01-28T17:24:16Z</time>
      </trkpt>
      <trkpt lat="40.581189" lon="-3.503649">
        <ele>686.021</ele>
        <time>2020-01-28T17:24:26Z</time>
      </trkpt>
      <trkpt lat="40.580878" lon="-3.503390">
        <ele>687.039</ele>
        <time>2020-01-28T17:24:36Z</time>
      </trkpt>
      <trkpt lat="40.580555" lon="-3.503353">
        <ele>687.098</ele>
        <time>2020-01-28T17:24:46Z</time>
      </trkpt>
      <trkpt lat="40.580334" lon="-3.503286">
        <ele>688.015</ele>
        <time>2020-01-28T17:24:56Z</time>
      </trkpt>
      <trkpt lat="40.579964" lon="-3.503328">
        <ele>689.026</ele>
        <time>2020-01-28T17:25:06Z</time>
      </trkpt>
      <trkpt lat="40.579628" lon="-3.503340">
        <ele>690.008</ele>
        <time>2020-01-28T17:25:16Z</time>
      </trkpt>
      <trkpt lat="40.579391" lon="-3.503455">
        <ele>691.010</ele>
        <time>2020-01-28T17:25:26Z</time>
      </trkpt>
      <trkpt lat="40.579361" lon="-3.503593">
        <ele>691.081</ele>
        <time>2020-01-28T17:25:36Z</time>
      </trkpt>
      <trkpt lat="40.579320" lon="-3.503909">
        <ele>690.098</ele>
        <time>2020-01-28T17:25:46Z</time>
      </trkpt>
      <trkpt lat="40.579338" lon="-3.504137">
        <ele>690.072</ele>
        <time>2020-01-28T17:25:56Z</time>
      </trkpt>
      <trkpt lat="40.579140" lon="-3.504262">
        <ele>692.074</ele>
        <time>2020-01-28T17:26:06Z</time>
      </trkpt>
      <trkpt lat="40.578749" lon="-3.504523">
        <ele>694.064</ele>
        <time>2020-01-28T17:26:16Z</time>
      </trkpt>
      <trkpt lat="40.578333" lon="-3.504641">
        <ele>696.036</ele>
        <time>2020-01-28T17:26:26Z</time>
      </trkpt>
      <trkpt lat="40.578052" lon="-3.504661">
        <ele>698.024</ele>
        <time>2020-01-28T17:26:36Z</time>
      </trkpt>
      <trkpt lat="40.577973" lon="-3.504803">
        <ele>698.032</ele>
        <time>2020-01-28T17:26:46Z</time>
      </trkpt>
      <trkpt lat="40.577936" lon="-3.505041">
        <ele>697.092</ele>
        <time>2020-01-28T17:26:56Z</time>
      </trkpt>
      <trkpt lat="40.577899" lon="-3.505289">
        <ele>699.011</ele>
        <time>2020-01-28T17:27:06Z</time>
      </trkpt>
      <trkpt lat="40.577774" lon="-3.505559">
        <ele>699.008</ele>
        <time>2020-01-28T17:27:16Z</time>
      </trkpt>
      <trkpt lat="40.577520" lon="-3.505657">
        <ele>701.034</ele>
        <time>2020-01-28T17:27:26Z</time>
      </trkpt>
      <trkpt lat="40.577073" lon="-3.505597">
        <ele>705.025</ele>
        <time>2020-01-28T17:27:36Z</time>
      </trkpt>
      <trkpt lat="40.576742" lon="-3.505524">
        <ele>708.062</ele>
        <time>2020-01-28T17:27:46Z</time>
      </trkpt>
      <trkpt lat="40.576524" lon="-3.505433">
        <ele>713.096</ele>
        <time>2020-01-28T17:27:56Z</time>
      </trkpt>
      <trkpt lat="40.576305" lon="-3.505486">
        <ele>713.088</ele>
        <time>2020-01-28T17:28:06Z</time>
      </trkpt>
      <trkpt lat="40.576217" lon="-3.505694">
        <ele>718.068</ele>
        <time>2020-01-28T17:28:16Z</time>
      </trkpt>
      <trkpt lat="40.576124" lon="-3.505786">
        <ele>717.010</ele>
        <time>2020-01-28T17:28:26Z</time>
      </trkpt>
      <trkpt lat="40.575614" lon="-3.505482">
        <ele>727.048</ele>
        <time>2020-01-28T17:28:36Z</time>
      </trkpt>
      <trkpt lat="40.575159" lon="-3.505494">
        <ele>729.066</ele>
        <time>2020-01-28T17:28:46Z</time>
      </trkpt>
      <trkpt lat="40.575110" lon="-3.504860">
        <ele>730.029</ele>
        <time>2020-01-28T17:28:56Z</time>
      </trkpt>
      <trkpt lat="40.575083" lon="-3.504444">
        <ele>730.021</ele>
        <time>2020-01-28T17:29:06Z</time>
      </trkpt>
      <trkpt lat="40.574989" lon="-3.504033">
        <ele>730.008</ele>
        <time>2020-01-28T17:29:16Z</time>
      </trkpt>
      <trkpt lat="40.574887" lon="-3.503710">
        <ele>729.047</ele>
        <time>2020-01-28T17:29:26Z</time>
      </trkpt>
      <trkpt lat="40.574873" lon="-3.503264">
        <ele>729.018</ele>
        <time>2020-01-28T17:29:36Z</time>
      </trkpt>
      <trkpt lat="40.574920" lon="-3.503050">
        <ele>729.045</ele>
        <time>2020-01-28T17:29:46Z</time>
      </trkpt>
      <trkpt lat="40.575231" lon="-3.502982">
        <ele>728.089</ele>
        <time>2020-01-28T17:29:56Z</time>
      </trkpt>
      <trkpt lat="40.575439" lon="-3.502804">
        <ele>726.011</ele>
        <time>2020-01-28T17:30:06Z</time>
      </trkpt>
      <trkpt lat="40.575657" lon="-3.502558">
        <ele>726.091</ele>
        <time>2020-01-28T17:30:16Z</time>
      </trkpt>
      <trkpt lat="40.575852" lon="-3.502073">
        <ele>725.063</ele>
        <time>2020-01-28T17:30:26Z</time>
      </trkpt>
      <trkpt lat="40.576260" lon="-3.501890">
        <ele>720.071</ele>
        <time>2020-01-28T17:30:36Z</time>
      </trkpt>
      <trkpt lat="40.576571" lon="-3.501761">
        <ele>717.053</ele>
        <time>2020-01-28T17:30:46Z</time>
      </trkpt>
      <trkpt lat="40.577407" lon="-3.501250">
        <ele>708.004</ele>
        <time>2020-01-28T17:30:56Z</time>
      </trkpt>
      <trkpt lat="40.577730" lon="-3.500932">
        <ele>707.014</ele>
        <time>2020-01-28T17:31:06Z</time>
      </trkpt>
      <trkpt lat="40.577352" lon="-3.500768">
        <ele>711.008</ele>
        <time>2020-01-28T17:31:16Z</time>
      </trkpt>
      <trkpt lat="40.576966" lon="-3.500752">
        <ele>714.056</ele>
        <time>2020-01-28T17:31:26Z</time>
      </trkpt>
      <trkpt lat="40.576240" lon="-3.500798">
        <ele>726.017</ele>
        <time>2020-01-28T17:31:36Z</time>
      </trkpt>
      <trkpt lat="40.575742" lon="-3.500995">
        <ele>728.034</ele>
        <time>2020-01-28T17:31:46Z</time>
      </trkpt>
      <trkpt lat="40.575546" lon="-3.501109">
        <ele>730.038</ele>
        <time>2020-01-28T17:31:56Z</time>
      </trkpt>
      <trkpt lat="40.575259" lon="-3.501066">
        <ele>731.090</ele>
        <time>2020-01-28T17:32:06Z</time>
      </trkpt>
      <trkpt lat="40.575396" lon="-3.500714">
        <ele>732.080</ele>
        <time>2020-01-28T17:32:16Z</time>
      </trkpt>
      <trkpt lat="40.575620" lon="-3.500366">
        <ele>733.062</ele>
        <time>2020-01-28T17:32:26Z</time>
      </trkpt>
      <trkpt lat="40.575853" lon="-3.499980">
        <ele>732.010</ele>
        <time>2020-01-28T17:32:36Z</time>
      </trkpt>
      <trkpt lat="40.576166" lon="-3.499684">
        <ele>731.073</ele>
        <time>2020-01-28T17:32:46Z</time>
      </trkpt>
      <trkpt lat="40.576446" lon="-3.499397">
        <ele>730.085</ele>
        <time>2020-01-28T17:32:56Z</time>
      </trkpt>
      <trkpt lat="40.576688" lon="-3.498819">
        <ele>732.013</ele>
        <time>2020-01-28T17:33:06Z</time>
      </trkpt>
      <trkpt lat="40.576816" lon="-3.498263">
        <ele>733.008</ele>
        <time>2020-01-28T17:33:16Z</time>
      </trkpt>
      <trkpt lat="40.577322" lon="-3.497996">
        <ele>732.068</ele>
        <time>2020-01-28T17:33:26Z</time>
      </trkpt>
      <trkpt lat="40.577679" lon="-3.497559">
        <ele>729.099</ele>
        <time>2020-01-28T17:33:36Z</time>
      </trkpt>
      <trkpt lat="40.578116" lon="-3.496928">
        <ele>726.046</ele>
        <time>2020-01-28T17:33:46Z</time>
      </trkpt>
      <trkpt lat="40.578673" lon="-3.495796">
        <ele>718.020</ele>
        <time>2020-01-28T17:33:56Z</time>
      </trkpt>
      <trkpt lat="40.578700" lon="-3.495670">
        <ele>718.042</ele>
        <time>2020-01-28T17:34:06Z</time>
      </trkpt>
      <trkpt lat="40.579099" lon="-3.495427">
        <ele>715.022</ele>
        <time>2020-01-28T17:34:16Z</time>
      </trkpt>
      <trkpt lat="40.579197" lon="-3.495253">
        <ele>715.034</ele>
        <time>2020-01-28T17:34:26Z</time>
      </trkpt>
      <trkpt lat="40.579317" lon="-3.494816">
        <ele>718.062</ele>
        <time>2020-01-28T17:34:36Z</time>
      </trkpt>
      <trkpt lat="40.579665" lon="-3.493951">
        <ele>722.072</ele>
        <time>2020-01-28T17:34:46Z</time>
      </trkpt>
      <trkpt lat="40.579841" lon="-3.493126">
        <ele>725.013</ele>
        <time>2020-01-28T17:34:56Z</time>
      </trkpt>
      <trkpt lat="40.580011" lon="-3.492214">
        <ele>729.014</ele>
        <time>2020-01-28T17:35:06Z</time>
      </trkpt>
      <trkpt lat="40.580019" lon="-3.491641">
        <ele>731.008</ele>
        <time>2020-01-28T17:35:16Z</time>
      </trkpt>
      <trkpt lat="40.580021" lon="-3.490970">
        <ele>734.078</ele>
        <time>2020-01-28T17:35:26Z</time>
      </trkpt>
      <trkpt lat="40.579861" lon="-3.490387">
        <ele>736.089</ele>
        <time>2020-01-28T17:35:36Z</time>
      </trkpt>
      <trkpt lat="40.579847" lon="-3.490014">
        <ele>737.076</ele>
        <time>2020-01-28T17:35:46Z</time>
      </trkpt>
      <trkpt lat="40.580020" lon="-3.489282">
        <ele>742.060</ele>
        <time>2020-01-28T17:35:56Z</time>
      </trkpt>
      <trkpt lat="40.579961" lon="-3.488755">
        <ele>744.082</ele>
        <time>2020-01-28T17:36:06Z</time>
      </trkpt>
      <trkpt lat="40.579959" lon="-3.488393">
        <ele>746.092</ele>
        <time>2020-01-28T17:36:16Z</time>
      </trkpt>
      <trkpt lat="40.580004" lon="-3.487854">
        <ele>748.054</ele>
        <time>2020-01-28T17:36:26Z</time>
      </trkpt>
      <trkpt lat="40.580070" lon="-3.486915">
        <ele>748.062</ele>
        <time>2020-01-28T17:36:36Z</time>
      </trkpt>
      <trkpt lat="40.580209" lon="-3.486577">
        <ele>744.096</ele>
        <time>2020-01-28T17:36:46Z</time>
      </trkpt>
      <trkpt lat="40.580223" lon="-3.486304">
        <ele>741.031</ele>
        <time>2020-01-28T17:36:56Z</time>
      </trkpt>
      <trkpt lat="40.579895" lon="-3.485906">
        <ele>736.024</ele>
        <time>2020-01-28T17:37:06Z</time>
      </trkpt>
      <trkpt lat="40.579775" lon="-3.485602">
        <ele>735.008</ele>
        <time>2020-01-28T17:37:16Z</time>
      </trkpt>
      <trkpt lat="40.579965" lon="-3.485178">
        <ele>731.070</ele>
        <time>2020-01-28T17:37:26Z</time>
      </trkpt>
      <trkpt lat="40.580062" lon="-3.484981">
        <ele>730.021</ele>
        <time>2020-01-28T17:37:36Z</time>
      </trkpt>
      <trkpt lat="40.580551" lon="-3.485327">
        <ele>730.088</ele>
        <time>2020-01-28T17:37:46Z</time>
      </trkpt>
      <trkpt lat="40.581054" lon="-3.485474">
        <ele>732.072</ele>
        <time>2020-01-28T17:37:56Z</time>
      </trkpt>
      <trkpt lat="40.581666" lon="-3.485852">
        <ele>734.094</ele>
        <time>2020-01-28T17:38:06Z</time>
      </trkpt>
      <trkpt lat="40.581944" lon="-3.486114">
        <ele>734.094</ele>
        <time>2020-01-28T17:38:16Z</time>
      </trkpt>
      <trkpt lat="40.582129" lon="-3.486364">
        <ele>734.096</ele>
        <time>2020-01-28T17:38:26Z</time>
      </trkpt>
      <trkpt lat="40.582465" lon="-3.486660">
        <ele>734.024</ele>
        <time>2020-01-28T17:38:36Z</time>
      </trkpt>
      <trkpt lat="40.582613" lon="-3.487175">
        <ele>736.034</ele>
        <time>2020-01-28T17:38:46Z</time>
      </trkpt>
      <trkpt lat="40.582740" lon="-3.487928">
        <ele>735.055</ele>
        <time>2020-01-28T17:38:56Z</time>
      </trkpt>
      <trkpt lat="40.582871" lon="-3.488531">
        <ele>734.010</ele>
        <time>2020-01-28T17:39:06Z</time>
      </trkpt>
      <trkpt lat="40.583155" lon="-3.489330">
        <ele>729.008</ele>
        <time>2020-01-28T17:39:16Z</time>
      </trkpt>
      <trkpt lat="40.583395" lon="-3.489659">
        <ele>726.024</ele>
        <time>2020-01-28T17:39:26Z</time>
      </trkpt>
      <trkpt lat="40.583689" lon="-3.490381">
        <ele>723.095</ele>
        <time>2020-01-28T17:39:36Z</time>
      </trkpt>
      <trkpt lat="40.583860" lon="-3.491051">
        <ele>721.042</ele>
        <time>2020-01-28T17:39:46Z</time>
      </trkpt>
      <trkpt lat="40.584093" lon="-3.491764">
        <ele>720.026</ele>
        <time>2020-01-28T17:39:56Z</time>
      </trkpt>
      <trkpt lat="40.584342" lon="-3.492586">
        <ele>717.018</ele>
        <time>2020-01-28T17:40:06Z</time>
      </trkpt>
      <trkpt lat="40.584701" lon="-3.493584">
        <ele>712.028</ele>
        <time>2020-01-28T17:40:16Z</time>
      </trkpt>
      <trkpt lat="40.584986" lon="-3.494009">
        <ele>709.060</ele>
        <time>2020-01-28T17:40:26Z</time>
      </trkpt>
      <trkpt lat="40.585542" lon="-3.494764">
        <ele>708.068</ele>
        <time>2020-01-28T17:40:36Z</time>
      </trkpt>
      <trkpt lat="40.585752" lon="-3.495572">
        <ele>711.099</ele>
        <time>2020-01-28T17:40:46Z</time>
      </trkpt>
      <trkpt lat="40.585576" lon="-3.496348">
        <ele>709.007</ele>
        <time>2020-01-28T17:40:56Z</time>
      </trkpt>
      <trkpt lat="40.585362" lon="-3.496950">
        <ele>707.027</ele>
        <time>2020-01-28T17:41:06Z</time>
      </trkpt>
      <trkpt lat="40.585329" lon="-3.497775">
        <ele>706.008</ele>
        <time>2020-01-28T17:41:16Z</time>
      </trkpt>
      <trkpt lat="40.585169" lon="-3.498956">
        <ele>703.040</ele>
        <time>2020-01-28T17:41:26Z</time>
      </trkpt>
      <trkpt lat="40.585020" lon="-3.499588">
        <ele>699.061</ele>
        <time>2020-01-28T17:41:36Z</time>
      </trkpt>
      <trkpt lat="40.584828" lon="-3.500382">
        <ele>695.088</ele>
        <time>2020-01-28T17:41:46Z</time>
      </trkpt>
      <trkpt lat="40.584536" lon="-3.501421">
        <ele>692.042</ele>
        <time>2020-01-28T17:41:56Z</time>
      </trkpt>
      <trkpt lat="40.584609" lon="-3.501939">
        <ele>691.014</ele>
        <time>2020-01-28T17:42:06Z</time>
      </trkpt>
      <trkpt lat="40.584514" lon="-3.502530">
        <ele>689.054</ele>
        <time>2020-01-28T17:42:16Z</time>
      </trkpt>
      <trkpt lat="40.584108" lon="-3.503300">
        <ele>686.016</ele>
        <time>2020-01-28T17:42:26Z</time>
      </trkpt>
      <trkpt lat="40.583642" lon="-3.504009">
        <ele>681.014</ele>
        <time>2020-01-28T17:42:36Z</time>
      </trkpt>
      <trkpt lat="40.583021" lon="-3.504676">
        <ele>679.079</ele>
        <time>2020-01-28T17:42:46Z</time>
      </trkpt>
      <trkpt lat="40.582098" lon="-3.505121">
        <ele>681.005</ele>
        <time>2020-01-28T17:42:56Z</time>
      </trkpt>
      <trkpt lat="40.581886" lon="-3.504768">
        <ele>681.025</ele>
        <time>2020-01-28T17:43:06Z</time>
      </trkpt>
      <trkpt lat="40.581649" lon="-3.504116">
        <ele>683.008</ele>
        <time>2020-01-28T17:43:16Z</time>
      </trkpt>
      <trkpt lat="40.580842" lon="-3.503518">
        <ele>686.018</ele>
        <time>2020-01-28T17:43:26Z</time>
      </trkpt>
      <trkpt lat="40.579739" lon="-3.503413">
        <ele>690.079</ele>
        <time>2020-01-28T17:43:36Z</time>
      </trkpt>
      <trkpt lat="40.579439" lon="-3.503664">
        <ele>691.036</ele>
        <time>2020-01-28T17:43:46Z</time>
      </trkpt>
      <trkpt lat="40.579543" lon="-3.503741">
        <ele>691.090</ele>
        <time>2020-01-28T17:43:56Z</time>
      </trkpt>
      <trkpt lat="40.579683" lon="-3.504778">
        <ele>690.052</ele>
        <time>2020-01-28T17:44:06Z</time>
      </trkpt>
      <trkpt lat="40.579710" lon="-3.505032">
        <ele>690.012</ele>
        <time>2020-01-28T17:44:16Z</time>
      </trkpt>
      <trkpt lat="40.580162" lon="-3.505338">
        <ele>688.024</ele>
        <time>2020-01-28T17:44:26Z</time>
      </trkpt>
      <trkpt lat="40.580833" lon="-3.505960">
        <ele>685.072</ele>
        <time>2020-01-28T17:44:36Z</time>
      </trkpt>
      <trkpt lat="40.580945" lon="-3.506105">
        <ele>684.014</ele>
        <time>2020-01-28T17:44:46Z</time>
      </trkpt>
      <trkpt lat="40.580977" lon="-3.506475">
        <ele>683.054</ele>
        <time>2020-01-28T17:44:56Z</time>
      </trkpt>
      <trkpt lat="40.581057" lon="-3.506499">
        <ele>683.009</ele>
        <time>2020-01-28T17:45:06Z</time>
      </trkpt>
      <trkpt lat="40.581022" lon="-3.506005">
        <ele>684.008</ele>
        <time>2020-01-28T17:45:16Z</time>
      </trkpt>
      <trkpt lat="40.581164" lon="-3.505845">
        <ele>684.092</ele>
        <time>2020-01-28T17:45:26Z</time>
      </trkpt>
    </trkseg>
  </trk>
</gpx>
